Time;durP1;ratioP1;P1;durP2;ratioP2;P2;SDS_P1;SDS_P2;PMS_P1;PMS_P2;Temp;Humidity;BMP_temperature;BMP_pressure;BME280_temperature;BME280_humidity;BME280_pressure;Samples;Min_cycle;Max_cycle;Signal;HPM_P1;HPM_P2
2021/03/30 00:00:19;;;;;;;9.05;6.20;;;9.50;99.90;;;;;;5010241;28;20422;-81
2021/03/30 00:02:44;;;;;;;10.55;7.03;;;9.50;99.90;;;;;;5009106;28;20399;-81
2021/03/30 00:05:11;;;;;;;9.15;6.30;;;9.40;99.90;;;;;;5010193;28;20438;-81
2021/03/30 00:07:36;;;;;;;9.68;6.90;;;9.40;99.90;;;;;;5010710;28;20486;-81
2021/03/30 00:10:05;;;;;;;10.70;6.82;;;9.30;99.90;;;;;;5011424;28;20467;-81
2021/03/30 00:12:30;;;;;;;10.45;7.03;;;9.30;99.90;;;;;;5008450;28;20450;-81
2021/03/30 00:14:56;;;;;;;9.70;6.80;;;9.20;99.90;;;;;;5008287;28;20387;-81
2021/03/30 00:17:22;;;;;;;12.17;6.53;;;9.20;99.90;;;;;;5009479;28;20827;-81
2021/03/30 00:19:47;;;;;;;8.88;6.82;;;9.20;99.90;;;;;;5009895;28;20407;-81
2021/03/30 00:22:13;;;;;;;12.03;7.27;;;9.10;99.90;;;;;;5008306;28;20395;-81
2021/03/30 00:24:38;;;;;;;10.70;7.17;;;9.10;99.90;;;;;;5009766;28;20908;-81
2021/03/30 00:27:04;;;;;;;8.90;6.72;;;9.10;99.90;;;;;;5010584;28;20397;-81
2021/03/30 00:29:42;;;;;;;10.98;7.07;;;9.00;99.90;;;;;;5011484;28;20383;-81
2021/03/30 00:32:11;;;;;;;12.43;7.43;;;9.00;99.90;;;;;;5010453;28;20395;-81
2021/03/30 00:34:37;;;;;;;9.75;6.90;;;8.90;99.90;;;;;;5011248;28;20402;-81
2021/03/30 00:37:03;;;;;;;11.10;7.30;;;8.90;99.90;;;;;;5010550;28;20390;-81
2021/03/30 00:39:29;;;;;;;12.13;7.35;;;8.80;99.90;;;;;;5010953;28;20391;-81
2021/03/30 00:41:55;;;;;;;8.90;6.63;;;8.80;99.90;;;;;;5010835;28;20384;-81
2021/03/30 00:44:20;;;;;;;10.32;7.35;;;8.70;99.90;;;;;;5011098;28;20425;-81
2021/03/30 00:46:46;;;;;;;8.75;6.97;;;8.60;99.90;;;;;;5011259;28;20467;-81
2021/03/30 00:49:16;;;;;;;9.68;6.95;;;8.60;99.90;;;;;;5010897;28;20387;-81
2021/03/30 00:51:43;;;;;;;9.10;6.30;;;8.60;99.90;;;;;;5010761;28;20407;-81
2021/03/30 00:54:09;;;;;;;9.27;6.72;;;8.60;99.90;;;;;;5009795;28;20433;-81
2021/03/30 00:56:36;;;;;;;12.07;7.50;;;8.50;99.90;;;;;;5010899;28;20376;-81
2021/03/30 00:59:02;;;;;;;12.00;7.15;;;8.60;99.90;;;;;;5010480;28;20383;-81
2021/03/30 01:01:27;;;;;;;8.95;6.53;;;8.50;99.90;;;;;;5010832;28;20923;-81
2021/03/30 01:03:53;;;;;;;11.63;6.80;;;8.50;99.90;;;;;;5010758;28;20493;-81
2021/03/30 01:06:18;;;;;;;9.70;7.53;;;8.40;99.90;;;;;;5010841;28;20395;-81
2021/03/30 01:08:52;;;;;;;9.10;6.85;;;8.40;99.90;;;;;;5009285;28;20562;-81
2021/03/30 01:11:48;;;;;;;9.50;6.70;;;8.40;99.90;;;;;;5010689;28;20422;-81
2021/03/30 01:14:42;;;;;;;11.52;7.25;;;8.40;99.90;;;;;;5010236;28;20402;-81
2021/03/30 01:17:26;;;;;;;10.70;7.50;;;8.30;99.90;;;;;;4989256;28;20391;-81
2021/03/30 01:20:01;;;;;;;8.38;6.90;;;8.20;99.90;;;;;;5009067;28;20843;-81
2021/03/30 01:22:30;;;;;;;13.23;7.95;;;8.20;99.90;;;;;;5010320;28;20375;-81
2021/03/30 01:25:00;;;;;;;9.38;7.43;;;8.10;99.90;;;;;;5010283;28;20478;-81
2021/03/30 01:27:49;;;;;;;9.57;7.40;;;8.10;99.90;;;;;;5007974;28;20466;-81
2021/03/30 01:30:18;;;;;;;8.82;7.10;;;8.00;99.90;;;;;;5010134;28;20381;-81
2021/03/30 01:32:56;;;;;;;12.57;7.63;;;8.00;99.90;;;;;;5010198;28;20824;-81
2021/03/30 01:35:25;;;;;;;10.82;7.18;;;7.90;99.90;;;;;;5010322;28;20395;-81
2021/03/30 01:37:52;;;;;;;10.57;6.60;;;7.90;99.90;;;;;;5008531;28;20468;-81
2021/03/30 01:40:25;;;;;;;10.88;6.97;;;7.80;99.90;;;;;;5009864;28;20461;-81
2021/03/30 01:42:52;;;;;;;9.93;7.13;;;7.80;99.90;;;;;;5008939;28;20379;-81
2021/03/30 01:45:20;;;;;;;12.10;7.40;;;7.80;99.90;;;;;;5009836;28;20407;-81
2021/03/30 01:47:46;;;;;;;9.90;7.32;;;7.70;99.90;;;;;;5008270;28;20378;-82
2021/03/30 01:50:13;;;;;;;11.47;7.03;;;7.70;99.90;;;;;;5010061;28;20379;-81
2021/03/30 01:52:39;;;;;;;10.15;7.00;;;7.70;99.90;;;;;;5009759;28;21028;-81
2021/03/30 01:55:09;;;;;;;12.27;6.77;;;7.60;99.90;;;;;;5009895;28;20390;-81
2021/03/30 01:57:36;;;;;;;10.23;6.40;;;7.60;99.90;;;;;;5009526;28;20386;-81
2021/03/30 02:00:06;;;;;;;9.88;7.20;;;7.50;99.90;;;;;;5009617;28;20462;-81
2021/03/30 02:02:31;;;;;;;11.60;6.85;;;7.50;99.90;;;;;;5008563;28;20741;-81
2021/03/30 02:04:58;;;;;;;9.98;7.00;;;7.50;99.90;;;;;;5009950;28;20383;-81
2021/03/30 02:07:24;;;;;;;7.88;6.55;;;7.50;99.90;;;;;;5007757;28;20800;-81
2021/03/30 02:09:55;;;;;;;8.85;6.60;;;7.50;99.90;;;;;;5009520;28;20923;-81
2021/03/30 02:12:28;;;;;;;9.65;6.60;;;7.40;99.90;;;;;;5008391;28;20400;-82
2021/03/30 02:14:54;;;;;;;12.35;6.95;;;7.40;99.90;;;;;;5009533;28;20395;-81
2021/03/30 02:17:39;;;;;;;10.93;7.22;;;7.30;99.90;;;;;;5009432;28;20379;-81
2021/03/30 02:20:09;;;;;;;9.63;6.85;;;7.30;99.90;;;;;;5009447;28;20746;-81
2021/03/30 02:22:51;;;;;;;9.27;7.35;;;7.30;99.90;;;;;;5007957;28;20489;-82
2021/03/30 02:25:19;;;;;;;8.33;6.30;;;7.20;99.90;;;;;;5009470;28;20423;-81
2021/03/30 02:27:47;;;;;;;11.90;7.50;;;7.20;99.90;;;;;;5007747;28;20454;-81
2021/03/30 02:30:14;;;;;;;10.05;7.05;;;7.20;99.90;;;;;;5009050;28;20395;-81
2021/03/30 02:32:42;;;;;;;11.65;7.10;;;7.10;99.90;;;;;;5007494;28;20376;-81
2021/03/30 02:35:10;;;;;;;11.75;7.10;;;7.10;99.90;;;;;;5009115;28;20402;-81
2021/03/30 02:37:36;;;;;;;10.90;6.80;;;7.00;99.90;;;;;;5008590;28;20379;-81
2021/03/30 02:40:06;;;;;;;10.00;6.97;;;7.00;99.90;;;;;;5007672;28;21072;-81
2021/03/30 02:42:34;;;;;;;9.40;6.72;;;7.00;99.90;;;;;;5009045;28;20383;-81
2021/03/30 02:45:01;;;;;;;11.75;7.70;;;7.00;99.90;;;;;;5009162;28;20860;-81
2021/03/30 02:47:27;;;;;;;13.30;7.85;;;6.90;99.90;;;;;;5007666;28;20440;-81
2021/03/30 02:49:54;;;;;;;12.07;7.40;;;6.90;99.90;;;;;;5008855;28;20484;-81
2021/03/30 02:52:23;;;;;;;9.13;7.30;;;6.80;99.90;;;;;;5009153;28;20419;-81
2021/03/30 02:54:49;;;;;;;10.80;6.78;;;6.90;99.90;;;;;;5008894;28;20425;-81
2021/03/30 02:57:16;;;;;;;10.35;7.45;;;6.80;99.90;;;;;;5008682;28;20954;-81
2021/03/30 02:59:43;;;;;;;12.80;8.38;;;6.80;99.90;;;;;;5007498;28;20462;-81
2021/03/30 03:02:11;;;;;;;10.45;7.30;;;6.80;99.90;;;;;;5007576;28;20756;-81
2021/03/30 03:04:37;;;;;;;12.60;7.87;;;6.70;99.90;;;;;;5008911;28;20372;-81
2021/03/30 03:07:04;;;;;;;14.40;7.97;;;6.70;99.90;;;;;;5008326;28;20749;-81
2021/03/30 03:09:32;;;;;;;9.40;7.57;;;6.70;99.90;;;;;;5008918;28;20383;-80
2021/03/30 03:11:57;;;;;;;8.65;7.30;;;6.70;99.90;;;;;;5007281;28;20387;-81
2021/03/30 03:14:24;;;;;;;13.47;8.30;;;6.70;99.90;;;;;;5008797;28;20979;-81
2021/03/30 03:16:51;;;;;;;11.90;7.78;;;6.70;99.90;;;;;;5009486;28;20406;-81
2021/03/30 03:19:17;;;;;;;12.32;8.20;;;6.60;99.90;;;;;;5007009;28;20408;-81
2021/03/30 03:21:44;;;;;;;9.20;7.23;;;6.50;99.90;;;;;;5007518;28;20395;-81
2021/03/30 03:24:11;;;;;;;11.13;7.75;;;6.50;99.90;;;;;;5008783;28;20384;-81
2021/03/30 03:26:38;;;;;;;8.82;7.10;;;6.50;99.90;;;;;;5008648;28;20426;-81
2021/03/30 03:29:14;;;;;;;10.83;7.37;;;6.40;99.90;;;;;;5008150;28;20530;-81
2021/03/30 03:31:40;;;;;;;13.75;7.80;;;6.40;99.90;;;;;;5008696;28;20482;-81
2021/03/30 03:34:06;;;;;;;11.50;7.40;;;6.40;99.90;;;;;;5008476;28;20382;-81
2021/03/30 03:36:40;;;;;;;9.53;6.93;;;6.40;99.90;;;;;;5008441;28;20387;-81
2021/03/30 03:39:07;;;;;;;12.70;7.47;;;6.30;99.90;;;;;;5008294;28;20375;-81
2021/03/30 03:41:33;;;;;;;9.65;7.78;;;6.30;99.90;;;;;;5008397;28;20987;-81
2021/03/30 03:43:59;;;;;;;10.13;7.70;;;6.30;99.90;;;;;;5008670;28;20474;-80
2021/03/30 03:46:25;;;;;;;10.32;7.78;;;6.20;99.90;;;;;;5008344;28;20410;-81
2021/03/30 03:48:50;;;;;;;13.38;7.95;;;6.20;99.90;;;;;;5008324;28;20390;-81
2021/03/30 03:51:17;;;;;;;11.40;7.80;;;6.20;99.90;;;;;;5010398;28;20389;-81
2021/03/30 03:53:45;;;;;;;10.63;7.90;;;6.20;99.90;;;;;;5010977;28;20441;-81
2021/03/30 03:56:13;;;;;;;11.10;8.00;;;6.20;99.90;;;;;;5010622;28;20450;-81
2021/03/30 03:58:48;;;;;;;13.07;8.73;;;6.20;99.90;;;;;;5010677;28;20449;-81
2021/03/30 04:01:19;;;;;;;11.80;7.53;;;6.20;99.90;;;;;;5010515;28;20486;-81
2021/03/30 04:03:51;;;;;;;9.98;7.35;;;6.20;99.90;;;;;;5012195;28;20379;-81
2021/03/30 04:06:21;;;;;;;13.00;8.07;;;6.10;99.90;;;;;;5011703;28;20413;-81
2021/03/30 04:08:56;;;;;;;9.32;7.65;;;6.00;99.90;;;;;;5010567;28;20433;-81
2021/03/30 04:11:23;;;;;;;9.77;7.32;;;6.00;99.90;;;;;;5011827;28;20403;-81
2021/03/30 04:13:50;;;;;;;10.48;7.13;;;6.00;99.90;;;;;;5011761;28;20478;-81
2021/03/30 04:16:16;;;;;;;10.00;7.43;;;6.00;99.90;;;;;;5011667;28;20371;-81
2021/03/30 04:18:43;;;;;;;8.27;6.97;;;6.00;99.90;;;;;;5011937;28;20379;-80
2021/03/30 04:21:20;;;;;;;9.50;7.20;;;6.00;99.90;;;;;;5011733;28;20927;-81
2021/03/30 04:23:46;;;;;;;11.70;7.95;;;6.00;99.90;;;;;;5010370;28;20490;-80
2021/03/30 04:26:12;;;;;;;9.35;7.55;;;5.90;99.90;;;;;;5010107;28;20375;-81
2021/03/30 04:28:39;;;;;;;9.82;6.82;;;5.90;99.90;;;;;;5009837;28;20383;-80
2021/03/30 04:31:05;;;;;;;9.75;7.05;;;5.90;99.90;;;;;;5009853;28;20433;-80
2021/03/30 04:33:30;;;;;;;10.30;7.70;;;5.90;99.90;;;;;;5011222;28;20768;-80
2021/03/30 04:35:56;;;;;;;11.03;7.40;;;5.90;99.90;;;;;;5011389;28;20391;-80
2021/03/30 04:38:22;;;;;;;10.82;7.38;;;5.80;99.90;;;;;;5010922;28;20379;-80
2021/03/30 04:40:52;;;;;;;9.45;7.40;;;5.80;99.90;;;;;;5010932;28;20435;-80
2021/03/30 04:43:19;;;;;;;8.23;6.85;;;5.80;99.90;;;;;;5011408;28;20383;-80
2021/03/30 04:45:45;;;;;;;10.25;7.43;;;5.80;99.90;;;;;;5009437;28;20788;-80
2021/03/30 04:48:11;;;;;;;10.00;7.57;;;5.80;99.90;;;;;;5010845;28;20444;-80
2021/03/30 04:50:36;;;;;;;11.10;8.35;;;5.80;99.90;;;;;;5009586;28;20391;-80
2021/03/30 04:53:02;;;;;;;9.20;7.20;;;5.80;99.90;;;;;;5011089;28;20753;-81
2021/03/30 04:55:27;;;;;;;10.20;8.20;;;5.90;99.90;;;;;;5010805;28;20466;-80
2021/03/30 04:57:53;;;;;;;10.38;7.70;;;5.80;99.90;;;;;;5010470;28;20438;-80
2021/03/30 05:00:19;;;;;;;11.30;6.82;;;5.80;99.90;;;;;;5010634;28;20407;-80
2021/03/30 05:02:44;;;;;;;9.90;7.75;;;5.80;99.90;;;;;;5010151;28;20413;-80
2021/03/30 05:05:11;;;;;;;12.65;7.97;;;5.80;99.90;;;;;;5011195;28;20419;-79
2021/03/30 05:07:37;;;;;;;10.38;7.85;;;5.80;99.90;;;;;;5010033;28;20410;-80
2021/03/30 05:10:04;;;;;;;11.13;7.53;;;5.80;99.90;;;;;;5010698;28;20873;-80
2021/03/30 05:12:29;;;;;;;9.63;7.30;;;5.80;99.90;;;;;;5010335;28;20379;-80
2021/03/30 05:14:55;;;;;;;10.87;7.73;;;5.90;99.90;;;;;;5010687;28;20386;-79
2021/03/30 05:17:21;;;;;;;8.15;7.00;;;5.90;99.90;;;;;;5010133;28;20387;-80
2021/03/30 05:19:46;;;;;;;8.40;7.47;;;5.90;99.90;;;;;;5010396;28;20456;-80
2021/03/30 05:22:12;;;;;;;7.83;6.87;;;5.90;99.90;;;;;;5010351;28;20903;-79
2021/03/30 05:24:38;;;;;;;11.57;8.20;;;6.00;99.90;;;;;;5010238;28;20378;-80
2021/03/30 05:27:04;;;;;;;12.07;8.43;;;6.10;99.90;;;;;;5009865;28;20869;-80
2021/03/30 05:29:30;;;;;;;24.80;9.00;;;6.10;99.90;;;;;;5010338;28;20749;-80
2021/03/30 05:31:55;;;;;;;12.80;8.70;;;6.20;99.90;;;;;;5010164;28;20526;-80
2021/03/30 05:34:21;;;;;;;19.37;9.10;;;6.20;99.90;;;;;;5009880;28;20481;-80
2021/03/30 05:36:47;;;;;;;20.60;8.82;;;6.30;99.90;;;;;;5008711;28;20417;-80
2021/03/30 05:39:13;;;;;;;24.40;9.40;;;6.40;99.90;;;;;;5009651;28;20450;-80
2021/03/30 05:41:39;;;;;;;13.30;9.63;;;6.40;99.90;;;;;;5008380;28;20510;-80
2021/03/30 05:44:06;;;;;;;13.73;9.43;;;6.50;99.90;;;;;;5010199;28;20883;-80
2021/03/30 05:46:32;;;;;;;16.95;10.27;;;6.60;99.90;;;;;;5010049;28;20952;-80
2021/03/30 05:48:58;;;;;;;12.70;8.80;;;6.80;99.90;;;;;;5009715;28;20394;-79
2021/03/30 05:51:25;;;;;;;16.88;8.98;;;7.00;99.90;;;;;;5008524;28;20398;-80
2021/03/30 05:53:58;;;;;;;16.25;8.68;;;7.20;99.90;;;;;;5009914;28;20382;-80
2021/03/30 05:56:26;;;;;;;18.43;8.77;;;7.50;99.90;;;;;;5009732;28;20387;-80
2021/03/30 05:58:55;;;;;;;13.95;8.60;;;7.70;99.90;;;;;;5009541;28;20371;-80
2021/03/30 06:01:21;;;;;;;14.30;8.35;;;8.00;99.90;;;;;;5006730;28;20414;-80
2021/03/30 06:03:48;;;;;;;12.32;8.40;;;8.20;99.90;;;;;;5007869;28;20387;-80
2021/03/30 06:06:16;;;;;;;14.88;8.93;;;8.40;99.90;;;;;;5009093;28;20418;-80
2021/03/30 06:08:42;;;;;;;14.55;9.32;;;8.60;99.90;;;;;;5006365;28;20919;-80
2021/03/30 06:11:10;;;;;;;11.53;9.03;;;8.70;99.90;;;;;;5009608;28;20410;-80
2021/03/30 06:13:57;;;;;;;12.33;9.03;;;8.80;99.90;;;;;;5009012;28;20387;-80
2021/03/30 06:16:34;;;;;;;16.52;9.35;;;9.10;99.90;;;;;;5008872;28;20441;-80
2021/03/30 06:19:07;;;;;;;12.77;9.02;;;9.30;99.90;;;;;;5009609;28;20398;-81
2021/03/30 06:21:37;;;;;;;11.90;8.43;;;9.50;99.90;;;;;;5009518;28;20414;-80
2021/03/30 06:24:22;;;;;;;12.80;8.63;;;9.80;99.90;;;;;;5009596;28;20384;-80
2021/03/30 06:26:49;;;;;;;12.65;7.63;;;10.20;99.90;;;;;;5009350;28;21195;-80
2021/03/30 06:29:35;;;;;;;12.13;7.38;;;10.40;99.90;;;;;;5000604;28;20397;-80
2021/03/30 06:32:08;;;;;;;12.18;7.90;;;10.60;99.90;;;;;;5006175;28;20695;-81
2021/03/30 06:34:33;;;;;;;12.37;7.90;;;10.80;99.90;;;;;;5009031;28;20483;-80
2021/03/30 06:36:59;;;;;;;14.70;8.33;;;11.00;99.90;;;;;;5009104;28;20371;-80
2021/03/30 06:39:40;;;;;;;15.40;8.77;;;11.20;99.90;;;;;;4997133;28;20395;-80
2021/03/30 06:42:18;;;;;;;24.33;9.57;;;11.40;99.90;;;;;;5003522;28;20454;-80
2021/03/30 06:44:43;;;;;;;13.88;9.70;;;11.60;99.90;;;;;;5003147;28;20402;-80
2021/03/30 06:47:17;;;;;;;16.77;9.60;;;11.80;99.90;;;;;;5004437;28;20379;-80
2021/03/30 06:49:55;;;;;;;19.50;10.20;;;11.90;99.90;;;;;;4988891;28;20412;-80
2021/03/30 06:52:34;;;;;;;15.52;10.25;;;12.10;99.90;;;;;;4989029;28;20421;-80
2021/03/30 06:55:06;;;;;;;20.15;12.55;;;12.40;99.90;;;;;;4988436;28;20385;-80
2021/03/30 06:57:40;;;;;;;17.58;11.20;;;12.60;99.90;;;;;;4988998;28;20384;-80
2021/03/30 07:00:11;;;;;;;14.53;10.30;;;12.80;99.90;;;;;;4987875;28;20448;-80
2021/03/30 07:02:47;;;;;;;19.98;10.13;;;12.90;99.90;;;;;;4989273;28;20393;-80
2021/03/30 07:05:29;;;;;;;18.98;9.75;;;13.20;99.90;;;;;;4989297;28;20463;-80
2021/03/30 07:08:06;;;;;;;14.90;9.10;;;13.40;99.90;;;;;;4989145;28;20428;-81
2021/03/30 07:10:40;;;;;;;15.75;9.90;;;13.60;99.90;;;;;;4988423;28;20388;-81
2021/03/30 07:13:06;;;;;;;13.32;9.27;;;13.80;99.90;;;;;;4989575;28;20385;-81
2021/03/30 07:15:32;;;;;;;14.05;10.52;;;13.90;99.90;;;;;;4987791;28;20381;-81
2021/03/30 07:18:05;;;;;;;19.40;9.77;;;14.10;99.90;;;;;;4989187;28;20387;-81
2021/03/30 07:20:37;;;;;;;18.10;10.85;;;14.30;99.90;;;;;;4988018;28;20473;-81
2021/03/30 07:23:08;;;;;;;17.10;10.20;;;14.40;99.90;;;;;;4989182;28;20928;-81
2021/03/30 07:25:38;;;;;;;12.68;10.25;;;14.60;99.90;;;;;;4991939;28;20404;-81
2021/03/30 07:28:09;;;;;;;15.07;9.77;;;14.80;99.90;;;;;;4991327;28;20389;-81
2021/03/30 07:30:38;;;;;;;15.52;9.38;;;15.00;99.90;;;;;;4991551;28;20393;-81
2021/03/30 07:33:28;;;;;;;14.50;9.95;;;15.10;99.90;;;;;;4991554;28;20905;-81
2021/03/30 07:35:57;;;;;;;14.75;9.93;;;15.30;99.90;;;;;;4992860;28;20380;-81
2021/03/30 07:38:28;;;;;;;19.42;10.23;;;15.40;99.90;;;;;;4992496;28;20878;-81
2021/03/30 07:40:54;;;;;;;15.27;10.55;;;15.60;99.90;;;;;;4992623;28;20413;-81
2021/03/30 07:43:28;;;;;;;16.20;10.63;;;15.60;99.50;;;;;;4991296;28;20388;-81
2021/03/30 07:45:59;;;;;;;17.65;11.00;;;15.60;99.40;;;;;;4992614;28;20399;-81
2021/03/30 07:48:27;;;;;;;17.70;10.43;;;15.70;98.70;;;;;;4992213;28;20377;-80
2021/03/30 07:50:59;;;;;;;17.65;10.52;;;15.80;98.10;;;;;;4992636;28;20377;-81
2021/03/30 07:53:43;;;;;;;19.40;10.52;;;15.90;98.90;;;;;;4992497;28;20875;-81
2021/03/30 07:56:28;;;;;;;16.40;10.30;;;15.90;99.70;;;;;;4992505;28;21011;-81
2021/03/30 07:58:56;;;;;;;14.75;10.90;;;16.00;97.70;;;;;;4991937;28;20381;-81
2021/03/30 08:01:24;;;;;;;18.90;11.00;;;16.20;98.80;;;;;;4992353;28;20503;-82
2021/03/30 08:03:52;;;;;;;18.45;10.48;;;16.30;97.00;;;;;;4993020;28;20404;-81
2021/03/30 08:06:19;;;;;;;17.90;11.10;;;16.50;97.00;;;;;;5009415;28;20915;-81
2021/03/30 08:08:48;;;;;;;17.10;11.13;;;16.70;96.30;;;;;;5011320;28;20383;-81
2021/03/30 08:11:14;;;;;;;16.00;11.02;;;16.70;97.10;;;;;;5010191;28;20780;-81
2021/03/30 08:13:53;;;;;;;16.20;10.52;;;16.90;95.90;;;;;;5009767;28;20742;-82
2021/03/30 08:16:21;;;;;;;15.93;11.20;;;17.10;95.60;;;;;;4995538;28;20400;-81
2021/03/30 08:18:47;;;;;;;15.38;11.50;;;17.20;94.90;;;;;;4992129;28;20383;-81
2021/03/30 08:21:16;;;;;;;19.17;11.82;;;17.20;93.60;;;;;;5006270;28;20399;-80
2021/03/30 08:23:55;;;;;;;16.15;12.07;;;17.20;93.90;;;;;;5008855;28;20497;-81
2021/03/30 08:26:30;;;;;;;16.13;11.35;;;17.20;93.40;;;;;;5009802;28;20765;-81
2021/03/30 08:29:32;;;;;;;18.67;11.73;;;17.20;93.60;;;;;;5004821;28;20514;-81
2021/03/30 08:31:58;;;;;;;16.27;11.50;;;17.40;94.10;;;;;;4991662;28;20940;-82
2021/03/30 08:34:27;;;;;;;14.82;11.07;;;17.40;93.20;;;;;;5006942;28;20391;-81
2021/03/30 08:36:57;;;;;;;19.17;11.82;;;17.40;93.40;;;;;;5007369;28;20558;-83
2021/03/30 08:39:23;;;;;;;15.77;11.65;;;17.40;93.20;;;;;;5006060;28;20447;-81
2021/03/30 08:41:54;;;;;;;16.10;11.95;;;17.60;93.90;;;;;;5007033;28;20449;-85
2021/03/30 08:44:43;;;;;;;17.05;12.38;;;17.80;92.00;;;;;;5006558;28;20467;-83
2021/03/30 08:47:37;;;;;;;17.50;11.90;;;17.90;93.30;;;;;;5003505;28;20735;-84
2021/03/30 08:50:22;;;;;;;17.55;12.60;;;18.00;92.80;;;;;;5002218;28;20450;-83
2021/03/30 08:52:48;;;;;;;16.97;11.60;;;18.10;90.80;;;;;;5004946;28;20410;-84
2021/03/30 08:55:14;;;;;;;17.00;11.57;;;18.00;91.60;;;;;;5007375;28;20399;-84
2021/03/30 08:57:49;;;;;;;18.67;12.88;;;18.20;90.50;;;;;;5007252;28;20889;-84
2021/03/30 09:00:15;;;;;;;17.60;12.95;;;18.30;90.70;;;;;;5006937;28;20645;-83
2021/03/30 09:02:42;;;;;;;16.27;12.53;;;18.30;90.20;;;;;;5006777;28;20462;-83
2021/03/30 09:05:19;;;;;;;15.27;11.38;;;18.30;90.60;;;;;;5007338;28;20382;-83
2021/03/30 09:07:46;;;;;;;17.13;12.57;;;18.40;90.50;;;;;;5004158;28;20391;-83
2021/03/30 09:10:13;;;;;;;17.83;12.05;;;18.40;91.80;;;;;;5003324;28;21913;-85
2021/03/30 09:12:39;;;;;;;18.98;12.00;;;18.50;88.80;;;;;;5004935;28;20398;-86
2021/03/30 09:15:10;;;;;;;22.50;12.48;;;18.70;89.30;;;;;;5008795;28;20395;-85
2021/03/30 09:17:59;;;;;;;21.63;12.70;;;18.80;88.50;;;;;;5005819;28;20402;-85
2021/03/30 09:20:27;;;;;;;17.20;11.17;;;18.90;90.50;;;;;;5007763;28;20407;-85
2021/03/30 09:22:55;;;;;;;17.20;11.98;;;18.70;89.50;;;;;;5008333;28;20917;-85
2021/03/30 09:25:27;;;;;;;18.83;11.80;;;18.70;91.90;;;;;;5001142;28;20396;-86
2021/03/30 09:27:53;;;;;;;17.85;10.77;;;18.80;91.80;;;;;;5011425;28;20554;-85
2021/03/30 09:30:21;;;;;;;18.90;10.73;;;18.90;91.40;;;;;;4994336;28;20571;-84
2021/03/30 09:32:49;;;;;;;16.95;11.25;;;19.00;92.20;;;;;;5005086;28;20395;-85
2021/03/30 09:35:17;;;;;;;20.75;11.63;;;19.10;91.70;;;;;;5002308;28;20861;-84
2021/03/30 09:37:48;;;;;;;15.07;11.25;;;19.00;92.10;;;;;;4998480;28;20384;-84
2021/03/30 09:40:16;;;;;;;19.17;11.90;;;19.10;91.90;;;;;;4991323;28;20925;-85
2021/03/30 09:42:43;;;;;;;15.88;10.48;;;18.90;91.30;;;;;;5004205;28;20395;-84
2021/03/30 09:45:12;;;;;;;21.63;11.15;;;19.00;93.00;;;;;;5001774;28;20902;-85
2021/03/30 09:47:39;;;;;;;20.17;11.30;;;19.10;94.60;;;;;;4990937;28;20903;-85
2021/03/30 09:50:06;;;;;;;19.87;11.77;;;19.20;93.00;;;;;;5005940;28;20718;-86
2021/03/30 09:52:33;;;;;;;17.98;11.63;;;19.40;92.80;;;;;;5008059;28;20391;-84
2021/03/30 09:54:59;;;;;;;19.33;11.23;;;19.40;92.50;;;;;;5007382;28;20399;-85
2021/03/30 09:57:28;;;;;;;18.88;11.48;;;19.30;91.70;;;;;;5009079;28;20645;-85
2021/03/30 09:59:54;;;;;;;16.98;11.40;;;19.40;92.90;;;;;;5007316;28;20453;-84
2021/03/30 10:02:29;;;;;;;17.52;11.95;;;19.50;92.70;;;;;;5008465;28;20395;-85
2021/03/30 10:04:56;;;;;;;18.10;11.80;;;19.60;91.50;;;;;;5000878;28;21183;-84
2021/03/30 10:07:23;;;;;;;18.23;11.85;;;19.60;92.10;;;;;;4990988;28;20419;-85
2021/03/30 10:10:01;;;;;;;19.35;12.43;;;19.70;92.70;;;;;;5005294;28;20445;-85
2021/03/30 10:12:35;;;;;;;17.85;12.23;;;19.50;91.00;;;;;;5007514;28;20915;-85
2021/03/30 10:15:02;;;;;;;15.73;12.00;;;19.50;93.60;;;;;;5007853;28;20478;-84
2021/03/30 10:17:30;;;;;;;18.98;12.27;;;19.70;92.20;;;;;;5007300;28;20392;-84
2021/03/30 10:19:58;;;;;;;20.00;12.30;;;19.70;93.40;;;;;;5005891;28;20503;-84
2021/03/30 10:22:35;;;;;;;19.73;12.35;;;19.80;92.50;;;;;;5006408;28;20963;-85
2021/03/30 10:25:22;;;;;;;18.17;11.98;;;19.90;93.20;;;;;;5007133;28;20391;-84
2021/03/30 10:27:58;;;;;;;21.60;13.20;;;20.00;93.50;;;;;;5007438;28;20922;-85
2021/03/30 10:30:38;;;;;;;16.47;11.90;;;20.20;93.20;;;;;;5007280;28;20417;-84
2021/03/30 10:33:07;;;;;;;20.80;12.40;;;20.30;93.00;;;;;;5004475;28;20395;-84
2021/03/30 10:35:33;;;;;;;20.98;11.93;;;20.20;92.20;;;;;;5007015;28;20401;-84
2021/03/30 10:37:59;;;;;;;16.57;11.37;;;20.20;92.90;;;;;;5007672;28;20383;-86
2021/03/30 10:40:39;;;;;;;15.38;11.10;;;20.30;94.00;;;;;;4999309;28;20432;-85
2021/03/30 10:43:24;;;;;;;19.05;12.05;;;20.40;93.50;;;;;;5009538;28;20475;-85
2021/03/30 10:45:51;;;;;;;16.77;11.70;;;20.50;93.00;;;;;;4995812;28;20403;-84
2021/03/30 10:48:17;;;;;;;19.80;11.68;;;20.40;92.40;;;;;;4996639;28;20926;-84
2021/03/30 10:50:44;;;;;;;18.50;12.20;;;20.30;92.20;;;;;;4991982;28;20461;-84
2021/03/30 10:53:11;;;;;;;17.13;11.57;;;20.30;93.20;;;;;;4998823;28;20495;-83
2021/03/30 10:55:37;;;;;;;21.90;13.07;;;20.40;93.00;;;;;;4999080;28;20909;-85
2021/03/30 10:58:05;;;;;;;19.67;12.00;;;20.40;91.80;;;;;;4988683;28;20897;-84
2021/03/30 11:00:31;;;;;;;18.65;12.40;;;20.30;93.70;;;;;;5000698;28;21056;-82
2021/03/30 11:02:58;;;;;;;16.97;11.73;;;20.30;92.20;;;;;;4994698;28;20429;-82
2021/03/30 11:05:24;;;;;;;20.42;11.55;;;20.30;93.90;;;;;;5009785;28;20761;-81
2021/03/30 11:07:50;;;;;;;18.57;10.77;;;20.30;94.40;;;;;;5003921;28;20411;-81
2021/03/30 11:10:16;;;;;;;27.60;12.35;;;20.40;93.00;;;;;;4997009;28;20395;-82
2021/03/30 11:12:42;;;;;;;18.13;12.18;;;20.30;93.40;;;;;;5005031;28;20490;-83
2021/03/30 11:15:09;;;;;;;17.07;12.00;;;20.30;92.80;;;;;;5009831;28;20751;-82
2021/03/30 11:17:34;;;;;;;18.35;11.32;;;20.30;93.60;;;;;;5006773;28;20392;-82
2021/03/30 11:20:00;;;;;;;16.45;12.52;;;20.30;93.70;;;;;;5000918;28;20946;-82
2021/03/30 11:22:26;;;;;;;18.80;12.20;;;20.40;94.90;;;;;;5009830;28;20461;-82
2021/03/30 11:24:59;;;;;;;17.15;11.43;;;20.50;94.70;;;;;;5009986;28;20375;-82
2021/03/30 11:27:24;;;;;;;14.48;10.48;;;20.60;93.00;;;;;;5009619;28;20389;-82
2021/03/30 11:30:05;;;;;;;15.87;10.43;;;20.60;92.60;;;;;;5006413;28;20753;-82
2021/03/30 11:35:24;;;;;;;17.50;10.85;;;20.70;92.30;;;;;;4995126;28;20521;-82
2021/03/30 11:37:54;;;;;;;19.85;12.88;;;20.60;93.20;;;;;;5000340;28;20406;-82
2021/03/30 11:40:20;;;;;;;18.88;13.00;;;20.50;93.10;;;;;;5009725;28;20403;-81
2021/03/30 11:42:46;;;;;;;18.40;10.68;;;20.50;93.40;;;;;;5008687;28;20880;-81
2021/03/30 11:45:12;;;;;;;13.48;10.45;;;20.50;93.60;;;;;;5009599;28;20391;-82
2021/03/30 11:47:38;;;;;;;14.85;10.68;;;20.60;93.90;;;;;;5009138;28;20395;-82
2021/03/30 11:50:06;;;;;;;15.83;11.07;;;20.60;93.50;;;;;;5005474;28;20398;-81
2021/03/30 11:52:32;;;;;;;14.27;9.75;;;20.60;92.80;;;;;;5008202;28;20383;-80
2021/03/30 11:54:58;;;;;;;15.73;10.07;;;20.60;92.90;;;;;;5009188;28;20995;-81
2021/03/30 11:57:24;;;;;;;14.65;9.98;;;20.80;94.60;;;;;;5009612;28;20383;-81
2021/03/30 11:59:50;;;;;;;15.10;8.83;;;20.80;93.00;;;;;;5008872;28;20788;-81
2021/03/30 12:02:16;;;;;;;45.00;11.67;;;20.80;93.50;;;;;;5007394;28;21125;-81
2021/03/30 12:04:41;;;;;;;50.65;12.05;;;20.80;92.50;;;;;;5009166;28;20429;-80
2021/03/30 12:07:07;;;;;;;16.58;11.07;;;20.80;92.70;;;;;;5009316;28;20403;-82
2021/03/30 12:09:33;;;;;;;15.63;10.80;;;20.70;91.80;;;;;;5008757;28;20417;-81
2021/03/30 12:11:58;;;;;;;16.90;11.10;;;20.70;93.00;;;;;;5009513;28;20469;-81
2021/03/30 12:14:24;;;;;;;34.63;11.48;;;20.60;93.80;;;;;;5008871;28;20417;-82
2021/03/30 12:16:51;;;;;;;31.87;11.43;;;20.70;94.40;;;;;;5008315;28;20386;-81
2021/03/30 12:19:17;;;;;;;17.55;10.70;;;20.70;93.90;;;;;;5008673;28;20395;-80
2021/03/30 12:21:45;;;;;;;13.30;9.73;;;20.70;93.00;;;;;;5007825;28;20481;-80
2021/03/30 12:24:11;;;;;;;18.40;10.07;;;20.70;92.20;;;;;;5005254;28;20730;-81
2021/03/30 12:26:36;;;;;;;11.98;8.82;;;20.80;92.30;;;;;;5009213;28;20761;-80
2021/03/30 12:29:03;;;;;;;14.20;9.50;;;20.80;92.70;;;;;;5005609;28;20434;-80
2021/03/30 12:31:33;;;;;;;16.33;9.47;;;20.90;92.80;;;;;;5008975;28;20371;-80
2021/03/30 12:33:59;;;;;;;12.85;9.48;;;21.00;93.00;;;;;;5008778;28;20398;-83
2021/03/30 12:36:25;;;;;;;16.77;9.90;;;21.10;92.60;;;;;;5009264;28;20379;-82
2021/03/30 12:38:51;;;;;;;17.02;9.00;;;21.20;92.20;;;;;;5008013;28;20398;-83
2021/03/30 12:41:17;;;;;;;13.53;9.27;;;21.20;93.00;;;;;;5009141;28;20402;-82
2021/03/30 12:43:42;;;;;;;16.45;10.00;;;21.20;92.60;;;;;;5008169;28;20387;-83
2021/03/30 12:46:09;;;;;;;13.57;9.63;;;21.30;91.10;;;;;;5005730;28;20983;-84
2021/03/30 12:48:35;;;;;;;19.20;10.18;;;21.20;92.10;;;;;;5005591;28;21054;-83
2021/03/30 12:51:00;;;;;;;16.42;10.15;;;21.20;91.30;;;;;;5006241;28;20371;-82
2021/03/30 12:53:26;;;;;;;15.30;10.63;;;21.30;92.10;;;;;;5001647;28;20390;-83